Pastebin launched a little side project called HostCabi.net, check it out ;-)Don't like ads? PRO users don't see any ads ;-)
Guest

Untitled

By: a guest on Aug 16th, 2010  |  syntax: None  |  size: 55.23 KB  |  hits: 93  |  expires: Never
download  |  raw  |  embed  |  report abuse  |  print
Text below is selected. Please press Ctrl+C to copy to your clipboard. (⌘+C on Mac)
  1. 20:28:50 T:3288 M:1381588992  NOTICE: -----------------------------------------------------------------------
  2. 20:28:50 T:3288 M:1381568512  NOTICE: Starting XBMC, Platform: Windows XP Professional Service Pack 3 build 2600. Built on Aug 16 2010 (SVN:32775, compiler 1500)
  3. 20:28:50 T:3288 M:1381568512  NOTICE: AMD Athlon(tm) 64 X2 Dual Core Processor 4600+
  4. 20:28:50 T:3288 M:1381568512  NOTICE: Desktop Resolution: 1024x768 32Bit at 85Hz
  5. 20:28:50 T:3288 M:1381568512  NOTICE: Running with administrator rights
  6. 20:28:50 T:3288 M:1381568512  NOTICE: special://xbmc/ is mapped to: C:\Archivos de programa\XBMC3
  7. 20:28:50 T:3288 M:1381568512  NOTICE: special://xbmcbin/ is mapped to: C:\Archivos de programa\XBMC3
  8. 20:28:50 T:3288 M:1381568512  NOTICE: special://masterprofile/ is mapped to: C:\Documents and Settings\Usuario\Datos de programa\XBMC\userdata
  9. 20:28:50 T:3288 M:1381564416  NOTICE: special://home/ is mapped to: C:\Documents and Settings\Usuario\Datos de programa\XBMC
  10. 20:28:50 T:3288 M:1381564416  NOTICE: special://temp/ is mapped to: C:\Documents and Settings\Usuario\Datos de programa\XBMC\cache
  11. 20:28:50 T:3288 M:1381564416  NOTICE: The executable running is: C:\Archivos de programa\XBMC3\XBMC.exe
  12. 20:28:50 T:3288 M:1381564416  NOTICE: Log File is located: C:\Documents and Settings\Usuario\Datos de programa\XBMC\xbmc.log
  13. 20:28:50 T:3288 M:1381564416  NOTICE: -----------------------------------------------------------------------
  14. 20:28:50 T:3288 M:1381543936  NOTICE: Setup SDL
  15. 20:28:50 T:3288 M:1381396480  NOTICE: Found screen: Monitor Plug and Play on NVIDIA GeForce 8400 GS   , adapter 0.
  16. 20:28:50 T:3288 M:1381392384  NOTICE: Primary mode: 1024x768 @ 85.00 - Full Screen
  17. 20:28:50 T:3288 M:1381289984  NOTICE: Found mode: 640x480 @ 60.00 - Full Screen
  18. 20:28:50 T:3288 M:1381285888  NOTICE: Additional mode: 640x480 @ 60.00 - Full Screen
  19. 20:28:50 T:3288 M:1381285888  NOTICE: Found mode: 640x480 @ 70.00 - Full Screen
  20. 20:28:50 T:3288 M:1381285888  NOTICE: Additional mode: 640x480 @ 70.00 - Full Screen
  21. 20:28:50 T:3288 M:1381285888  NOTICE: Found mode: 640x480 @ 72.00 - Full Screen
  22. 20:28:50 T:3288 M:1381285888  NOTICE: Additional mode: 640x480 @ 72.00 - Full Screen
  23. 20:28:50 T:3288 M:1381285888  NOTICE: Found mode: 640x480 @ 75.00 - Full Screen
  24. 20:28:50 T:3288 M:1381285888  NOTICE: Additional mode: 640x480 @ 75.00 - Full Screen
  25. 20:28:50 T:3288 M:1381285888  NOTICE: Found mode: 640x480 @ 85.00 - Full Screen
  26. 20:28:50 T:3288 M:1381285888  NOTICE: Additional mode: 640x480 @ 85.00 - Full Screen
  27. 20:28:50 T:3288 M:1381285888  NOTICE: Found mode: 720x480 @ 60.00 - Full Screen
  28. 20:28:50 T:3288 M:1381285888  NOTICE: Additional mode: 720x480 @ 60.00 - Full Screen
  29. 20:28:50 T:3288 M:1381285888  NOTICE: Found mode: 720x576 @ 60.00 - Full Screen
  30. 20:28:50 T:3288 M:1381285888  NOTICE: Additional mode: 720x576 @ 60.00 - Full Screen
  31. 20:28:50 T:3288 M:1381285888  NOTICE: Found mode: 800x600 @ 60.00 - Full Screen
  32. 20:28:50 T:3288 M:1381285888  NOTICE: Additional mode: 800x600 @ 60.00 - Full Screen
  33. 20:28:50 T:3288 M:1381285888  NOTICE: Found mode: 800x600 @ 70.00 - Full Screen
  34. 20:28:50 T:3288 M:1381285888  NOTICE: Additional mode: 800x600 @ 70.00 - Full Screen
  35. 20:28:50 T:3288 M:1381285888  NOTICE: Found mode: 800x600 @ 72.00 - Full Screen
  36. 20:28:50 T:3288 M:1381285888  NOTICE: Additional mode: 800x600 @ 72.00 - Full Screen
  37. 20:28:50 T:3288 M:1381285888  NOTICE: Found mode: 800x600 @ 75.00 - Full Screen
  38. 20:28:50 T:3288 M:1381285888  NOTICE: Additional mode: 800x600 @ 75.00 - Full Screen
  39. 20:28:50 T:3288 M:1381285888  NOTICE: Found mode: 800x600 @ 85.00 - Full Screen
  40. 20:28:50 T:3288 M:1381285888  NOTICE: Additional mode: 800x600 @ 85.00 - Full Screen
  41. 20:28:50 T:3288 M:1381285888  NOTICE: Found mode: 1024x768 @ 60.00 - Full Screen
  42. 20:28:50 T:3288 M:1381285888  NOTICE: Additional mode: 1024x768 @ 60.00 - Full Screen
  43. 20:28:50 T:3288 M:1381285888  NOTICE: Found mode: 1024x768 @ 70.00 - Full Screen
  44. 20:28:50 T:3288 M:1381285888  NOTICE: Additional mode: 1024x768 @ 70.00 - Full Screen
  45. 20:28:50 T:3288 M:1381285888  NOTICE: Found mode: 1024x768 @ 72.00 - Full Screen
  46. 20:28:50 T:3288 M:1381281792  NOTICE: Additional mode: 1024x768 @ 72.00 - Full Screen
  47. 20:28:50 T:3288 M:1381277696  NOTICE: Found mode: 1024x768 @ 75.00 - Full Screen
  48. 20:28:50 T:3288 M:1381269504  NOTICE: Additional mode: 1024x768 @ 75.00 - Full Screen
  49. 20:28:50 T:3288 M:1381269504  NOTICE: Found mode: 1024x768 @ 85.00 - Full Screen
  50. 20:28:50 T:3288 M:1381269504  NOTICE: Additional mode: 1024x768 @ 85.00 - Full Screen
  51. 20:28:50 T:3288 M:1381269504  NOTICE: Found mode: 1152x864 @ 60.00 - Full Screen
  52. 20:28:50 T:3288 M:1381269504  NOTICE: Additional mode: 1152x864 @ 60.00 - Full Screen
  53. 20:28:50 T:3288 M:1381269504  NOTICE: Found mode: 1152x864 @ 70.00 - Full Screen
  54. 20:28:50 T:3288 M:1381269504  NOTICE: Additional mode: 1152x864 @ 70.00 - Full Screen
  55. 20:28:50 T:3288 M:1381269504  NOTICE: Found mode: 1152x864 @ 72.00 - Full Screen
  56. 20:28:50 T:3288 M:1381269504  NOTICE: Additional mode: 1152x864 @ 72.00 - Full Screen
  57. 20:28:50 T:3288 M:1381269504  NOTICE: Found mode: 1152x864 @ 75.00 - Full Screen
  58. 20:28:50 T:3288 M:1381269504  NOTICE: Additional mode: 1152x864 @ 75.00 - Full Screen
  59. 20:28:50 T:3288 M:1381269504  NOTICE: Found mode: 1280x720 @ 60.00 - Full Screen
  60. 20:28:50 T:3288 M:1381269504  NOTICE: Additional mode: 1280x720 @ 60.00 - Full Screen
  61. 20:28:50 T:3288 M:1381269504  NOTICE: Found mode: 1280x768 @ 60.00 - Full Screen
  62. 20:28:50 T:3288 M:1381269504  NOTICE: Additional mode: 1280x768 @ 60.00 - Full Screen
  63. 20:28:50 T:3288 M:1381269504  NOTICE: Found mode: 1280x768 @ 70.00 - Full Screen
  64. 20:28:50 T:3288 M:1381269504  NOTICE: Additional mode: 1280x768 @ 70.00 - Full Screen
  65. 20:28:50 T:3288 M:1381269504  NOTICE: Found mode: 1280x768 @ 72.00 - Full Screen
  66. 20:28:50 T:3288 M:1381269504  NOTICE: Additional mode: 1280x768 @ 72.00 - Full Screen
  67. 20:28:50 T:3288 M:1381269504  NOTICE: Found mode: 1280x768 @ 75.00 - Full Screen
  68. 20:28:50 T:3288 M:1381269504  NOTICE: Additional mode: 1280x768 @ 75.00 - Full Screen
  69. 20:28:50 T:3288 M:1381269504  NOTICE: Found mode: 1280x768 @ 85.00 - Full Screen
  70. 20:28:50 T:3288 M:1381269504  NOTICE: Additional mode: 1280x768 @ 85.00 - Full Screen
  71. 20:28:50 T:3288 M:1381269504  NOTICE: Found mode: 1280x800 @ 60.00 - Full Screen
  72. 20:28:50 T:3288 M:1381269504  NOTICE: Additional mode: 1280x800 @ 60.00 - Full Screen
  73. 20:28:50 T:3288 M:1381269504  NOTICE: Found mode: 1280x800 @ 70.00 - Full Screen
  74. 20:28:50 T:3288 M:1381269504  NOTICE: Additional mode: 1280x800 @ 70.00 - Full Screen
  75. 20:28:50 T:3288 M:1381269504  NOTICE: Found mode: 1280x800 @ 72.00 - Full Screen
  76. 20:28:50 T:3288 M:1381269504  NOTICE: Additional mode: 1280x800 @ 72.00 - Full Screen
  77. 20:28:50 T:3288 M:1381265408  NOTICE: Found mode: 1280x800 @ 75.00 - Full Screen
  78. 20:28:50 T:3288 M:1381265408  NOTICE: Additional mode: 1280x800 @ 75.00 - Full Screen
  79. 20:28:50 T:3288 M:1381265408  NOTICE: Found mode: 1280x800 @ 85.00 - Full Screen
  80. 20:28:50 T:3288 M:1381265408  NOTICE: Additional mode: 1280x800 @ 85.00 - Full Screen
  81. 20:28:50 T:3288 M:1381265408  NOTICE: Found mode: 1280x960 @ 60.00 - Full Screen
  82. 20:28:50 T:3288 M:1381265408  NOTICE: Additional mode: 1280x960 @ 60.00 - Full Screen
  83. 20:28:50 T:3288 M:1381265408  NOTICE: Found mode: 1280x960 @ 70.00 - Full Screen
  84. 20:28:50 T:3288 M:1381265408  NOTICE: Additional mode: 1280x960 @ 70.00 - Full Screen
  85. 20:28:50 T:3288 M:1381265408  NOTICE: Found mode: 1280x1024 @ 60.00 - Full Screen
  86. 20:28:50 T:3288 M:1381265408  NOTICE: Additional mode: 1280x1024 @ 60.00 - Full Screen
  87. 20:28:50 T:3288 M:1381363712  NOTICE: load settings...
  88. 20:28:52 T:3288 M:1381081088  NOTICE: special://profile/ is mapped to: special://masterprofile/
  89. 20:28:52 T:3288 M:1381068800  NOTICE: loading special://masterprofile/guisettings.xml
  90. 20:28:52 T:3288 M:1380814848  NOTICE: Getting hardware information now...
  91. 20:28:52 T:3288 M:1380814848  NOTICE: Checking resolution 11
  92. 20:28:52 T:3288 M:1380806656  NOTICE: Loading player core factory settings from special://xbmc/system/playercorefactory.xml.
  93. 20:28:52 T:3288 M:1380786176  NOTICE: Loaded playercorefactory configuration
  94. 20:28:52 T:3288 M:1380777984  NOTICE: Loading player core factory settings from special://masterprofile/playercorefactory.xml.
  95. 20:28:52 T:3288 M:1380773888  NOTICE: special://masterprofile/playercorefactory.xml does not exist. Skipping.
  96. 20:28:52 T:3288 M:1380765696  NOTICE: No advancedsettings.xml to load (special://masterprofile/advancedsettings.xml)
  97. 20:28:52 T:3288 M:1380765696  NOTICE: Default DVD Player: dvdplayer
  98. 20:28:52 T:3288 M:1380765696  NOTICE: Default Video Player: dvdplayer
  99. 20:28:52 T:3288 M:1380765696  NOTICE: Default Audio Player: paplayer
  100. 20:28:52 T:3288 M:1380765696  NOTICE: Enabled debug logging due to GUI setting (2)
  101. 20:28:52 T:3288 M:1380814848  NOTICE: Loading media sources from special://masterprofile/sources.xml
  102. 20:28:52 T:3288 M:1380790272    INFO: creating subdirectories
  103. 20:28:52 T:3288 M:1380790272    INFO: userdata folder: special://masterprofile/
  104. 20:28:52 T:3288 M:1380790272    INFO: recording folder:
  105. 20:28:52 T:3288 M:1380790272    INFO: screenshots folder:
  106. 20:28:52 T:3288 M:1380745216    INFO: thumbnails folder: special://masterprofile/Thumbnails
  107. 20:28:52 T:3288 M:1380474880    INFO: load language info file: special://xbmc/language/English/langinfo.xml
  108. 20:28:52 T:3288 M:1380458496    INFO: load language file:special://xbmc/language/English/strings.xml
  109. 20:28:52 T:3288 M:1380077568   DEBUG: Win32DllLoader::Load(special://xbmcbin/system/cpluff.dll)
  110. 20:28:52 T:3288 M:1379885056   DEBUG: Win32DllLoader::Load(special://xbmcbin/system/libexpat.dll)
  111. 20:28:52 T:3288 M:1379045376   DEBUG: ADDON: cpluff: 'Plug-in metadata.albums.allmusic.com has been installed.'
  112. 20:28:52 T:3288 M:1379045376   DEBUG: ADDON: cpluff: 'Plug-in repository.xbmc.org has been installed.'
  113. 20:28:52 T:3288 M:1379045376   DEBUG: ADDON: cpluff: 'Plug-in screensaver.xbmc.builtin.black has been installed.'
  114. 20:28:52 T:3288 M:1379045376   DEBUG: ADDON: cpluff: 'Plug-in screensaver.rsxs.euphoria has been installed.'
  115. 20:28:52 T:3288 M:1379045376   DEBUG: ADDON: cpluff: 'Plug-in visualization.projectm has been installed.'
  116. 20:28:52 T:3288 M:1379045376   DEBUG: ADDON: cpluff: 'Plug-in screensaver.xbmc.builtin.dim has been installed.'
  117. 20:28:52 T:3288 M:1379045376   DEBUG: ADDON: cpluff: 'Plug-in metadata.themoviedb.org has been installed.'
  118. 20:28:52 T:3288 M:1379045376   DEBUG: ADDON: cpluff: 'Plug-in metadata.artists.allmusic.com has been installed.'
  119. 20:28:52 T:3288 M:1379045376   DEBUG: ADDON: cpluff: 'Plug-in xbmc.metadata has been installed.'
  120. 20:28:52 T:3288 M:1379045376   DEBUG: ADDON: cpluff: 'Plug-in skin.confluence has been installed.'
  121. 20:28:52 T:3288 M:1379045376   DEBUG: ADDON: cpluff: 'Plug-in visualization.glspectrum has been installed.'
  122. 20:28:52 T:3288 M:1379045376   DEBUG: ADDON: cpluff: 'Plug-in xbmc.gui has been installed.'
  123. 20:28:52 T:3288 M:1379045376   DEBUG: ADDON: cpluff: 'Plug-in visualization.milkdrop has been installed.'
  124. 20:28:52 T:3288 M:1379045376   DEBUG: ADDON: cpluff: 'Plug-in script.module.pil has been installed.'
  125. 20:28:52 T:3288 M:1379045376   DEBUG: ADDON: cpluff: 'Plug-in visualization.dxspectrum has been installed.'
  126. 20:28:52 T:3288 M:1379045376   DEBUG: ADDON: cpluff: 'Plug-in xbmc.core has been installed.'
  127. 20:28:52 T:3288 M:1379045376   DEBUG: ADDON: cpluff: 'Plug-in script.recentlyadded has been installed.'
  128. 20:28:52 T:3288 M:1379045376   DEBUG: ADDON: cpluff: 'Plug-in screensaver.xbmc.builtin.slideshow has been installed.'
  129. 20:28:52 T:3288 M:1379045376   DEBUG: ADDON: cpluff: 'Plug-in metadata.common.htbackdrops.com has been installed.'
  130. 20:28:52 T:3288 M:1379045376   DEBUG: ADDON: cpluff: 'Plug-in metadata.tvdb.com has been installed.'
  131. 20:28:52 T:3288 M:1379045376   DEBUG: ADDON: cpluff: 'Plug-in metadata.common.allmusic.com has been installed.'
  132. 20:28:52 T:3288 M:1379045376   DEBUG: ADDON: cpluff: 'Plug-in weather.xbmc.builtin has been installed.'
  133. 20:28:52 T:3288 M:1379045376   DEBUG: ADDON: cpluff: 'Plug-in metadata.common.last.fm has been installed.'
  134. 20:28:52 T:3288 M:1379041280   DEBUG: ADDON: cpluff: 'Plug-in metadata.common.themoviedb.org has been installed.'
  135. 20:28:52 T:3288 M:1379041280   DEBUG: ADDON: cpluff: 'Plug-in xbmc.python has been installed.'
  136. 20:28:52 T:3288 M:1379037184   DEBUG: ADDON: cpluff: 'Plug-in xbmc.addon has been installed.'
  137. 20:28:52 T:3288 M:1379037184   DEBUG: ADDON: cpluff: 'Plug-in visualization.waveform has been installed.'
  138. 20:28:52 T:3288 M:1379037184   DEBUG: ADDON: cpluff: 'Plug-in screensaver.rsxs.plasma has been installed.'
  139. 20:28:52 T:3288 M:1379037184   DEBUG: ADDON: cpluff: 'Plug-in script.module.pysqlite has been installed.'
  140. 20:28:52 T:3288 M:1379037184   DEBUG: ADDON: cpluff: 'Plug-in metadata.mtv.com has been installed.'
  141. 20:28:52 T:3288 M:1379037184   DEBUG: ADDON: cpluff: 'Plug-in visualization.itunes has been installed.'
  142. 20:28:52 T:3288 M:1379037184   DEBUG: ADDON: cpluff: 'Plug-in metadata.common.hdtrailers.net has been installed.'
  143. 20:28:52 T:3288 M:1379037184   DEBUG: ADDON: cpluff: 'Not all directories were successfully scanned.'
  144. 20:28:52 T:1320 M:1378979840   DEBUG: thread start, auto delete: 0
  145. 20:28:52 T:3288 M:1378861056   DEBUG: CWinEventsWin32::WndProcWindow is active
  146. 20:28:52 T:3288 M:1378852864   DEBUG: CWinEventsWin32::WndProcWindow gained focus
  147. 20:28:52 T:3288 M:1378852864   DEBUG: CWinSystemWin32::ResizeInternal - resizing due to size change (148,121,868,601)->(148,121,876,628)
  148. 20:28:52 T:3288 M:1378840576   DEBUG: CRenderSystemDX::CreateDevice on adapter 0
  149. 20:28:52 T:3288 M:1377079296   DEBUG: CRenderSystemDX::CreateDevice - adapter 0: nv4_disp.dll, NVIDIA GeForce 8400 GS   , VendorId 4318, DeviceId 1764
  150. 20:28:52 T:3288 M:1377058816   DEBUG: CRenderSystemDX::CreateDevice - texture caps: 0x0001ECC5
  151. 20:28:52 T:3288 M:1377058816   DEBUG: CRenderSystemDX::CreateDevice - RENDER_CAPS_DXT
  152. 20:28:52 T:3288 M:1377058816   DEBUG: CRenderSystemDX::CreateDevice - RENDER_CAPS_NPOT
  153. 20:28:52 T:3288 M:1377058816   DEBUG: CRenderSystemDX::CreateDevice - RENDER_CAPS_DXT_NPOT
  154. 20:28:52 T:3288 M:1377042432    INFO: load default splash image: C:\Archivos de programa\XBMC3\media\Splash.png
  155. 20:28:52 T:3288 M:1376915456   DEBUG: Win32DllLoader::Load(special://xbmcbin/system/ImageLib.dll)
  156. 20:28:53 T:3288 M:1373282304    INFO: load keymapping
  157. 20:28:53 T:3288 M:1373208576    INFO: Loading special://xbmc/system/keymaps/gamepad.xml
  158. 20:28:53 T:3288 M:1373138944    INFO: Loading special://xbmc/system/keymaps/joystick.Alienware.Dual.Compatible.Controller.xml
  159. 20:28:53 T:3288 M:1373069312    INFO: Loading special://xbmc/system/keymaps/joystick.AppleRemote.xml
  160. 20:28:53 T:3288 M:1373040640    INFO: Loading special://xbmc/system/keymaps/joystick.Harmony.xml
  161. 20:28:53 T:3288 M:1372987392    INFO: Loading special://xbmc/system/keymaps/joystick.Interact.AxisPad.xml
  162. 20:28:53 T:3288 M:1372979200    INFO: Loading special://xbmc/system/keymaps/joystick.Logitech.RumblePad.2.xml
  163. 20:28:53 T:3288 M:1372966912    INFO: Loading special://xbmc/system/keymaps/joystick.Microsoft.Xbox.360.Controller.xml
  164. 20:28:53 T:3288 M:1372917760    INFO: Loading special://xbmc/system/keymaps/joystick.Microsoft.Xbox.Controller.S.xml
  165. 20:28:53 T:3288 M:1372729344    INFO: Loading special://xbmc/system/keymaps/joystick.PS3.Remote.Keyboard.xml
  166. 20:28:53 T:3288 M:1372676096    INFO: Loading special://xbmc/system/keymaps/joystick.WiiRemote.xml
  167. 20:28:53 T:3288 M:1372655616    INFO: Loading special://xbmc/system/keymaps/keyboard.xml
  168. 20:28:53 T:3288 M:1372598272    INFO: Loading special://xbmc/system/keymaps/remote.xml
  169. 20:28:53 T:3288 M:1372532736    INFO: Loading special://xbmc/system/IRSSmap.xml
  170. 20:28:53 T:3288 M:1372520448    INFO: * Adding remote mapping for device 'Microsoft MCE'
  171. 20:28:53 T:3288 M:1372520448    INFO: * Adding remote mapping for device 'Abstract'
  172. 20:28:53 T:3288 M:1372512256   DEBUG: CButtonTranslator::Load - no userdata IRSSmap.xml found, skipping
  173. 20:28:53 T:3288 M:1372512256    INFO: GUI format 720x480 Windowed
  174. 20:28:53 T:3288 M:1372487680  NOTICE: initializing playlistplayer
  175. 20:28:53 T:3288 M:1372487680  NOTICE: DONE initializing playlistplayer
  176. 20:28:53 T:3288 M:1372487680   DEBUG: DPMS: supported power-saving modes: OFF STANDBY
  177. 20:28:53 T:3288 M:1371922432    INFO:   delete old skin...
  178. 20:28:53 T:3288 M:1371713536   DEBUG: ------ Window Deinit (Pointer.xml) ------
  179. 20:28:53 T:3288 M:1371709440   DEBUG: ------ Window Deinit (DialogMuteBug.xml) ------
  180. 20:28:53 T:3288 M:1371697152    INFO:   load skin from:C:\Archivos de programa\XBMC3\addons\skin.confluence
  181. 20:28:53 T:3288 M:1371697152    INFO: Default 4:3 resolution directory is C:\Archivos de programa\XBMC3\addons\skin.confluence\720p
  182. 20:28:53 T:3288 M:1371697152    INFO: Default 16:9 resolution directory is C:\Archivos de programa\XBMC3\addons\skin.confluence\720p
  183. 20:28:53 T:3288 M:1371688960    INFO: Loading skin includes from C:\Archivos de programa\XBMC3\addons\skin.confluence\720p\includes.xml
  184. 20:28:53 T:3288 M:1370439680    INFO:   load fonts for skin...
  185. 20:28:53 T:3288 M:1370402816    INFO: Loading fonts from C:\Archivos de programa\XBMC3\addons\skin.confluence\720p\Font.xml
  186. 20:28:53 T:3288 M:1367891968    INFO:   load new skin...
  187. 20:28:53 T:3288 M:1367891968    INFO: Loading skin file: Home.xml
  188. 20:28:53 T:3288 M:1367003136    INFO: Loading user windows, path C:\Archivos de programa\XBMC3\addons\skin.confluence\720p
  189. 20:28:53 T:3288 M:1366728704   DEBUG: Load Skin XML: 46.26ms
  190. 20:28:53 T:3288 M:1366720512    INFO:   initialize new skin...
  191. 20:28:53 T:3288 M:1366720512    INFO: Loading skin file: Pointer.xml
  192. 20:28:53 T:3288 M:1366249472    INFO: Loading skin file: DialogVolumeBar.xml
  193. 20:28:53 T:3288 M:1366204416    INFO: Loading skin file: DialogSeekBar.xml
  194. 20:28:53 T:3288 M:1366253568    INFO: Loading skin file: DialogKaiToast.xml
  195. 20:28:53 T:3288 M:1366224896    INFO: Loading skin file: DialogMuteBug.xml
  196. 20:28:53 T:3288 M:1366192128    INFO: Loading skin file: DialogVolumeBar.xml
  197. 20:28:53 T:3288 M:1366372352    INFO: Loading skin file: DialogKaiToast.xml
  198. 20:28:53 T:3288 M:1366347776    INFO: Loading skin file: DialogSeekBar.xml
  199. 20:28:53 T:3288 M:1366327296    INFO: Loading skin file: DialogBusy.xml
  200. 20:28:53 T:3288 M:1366282240   DEBUG: CGUIAudioManager::Initialize
  201. 20:28:53 T:3288 M:1366282240   DEBUG: CAudioContext::SetActiveDevice - SetActiveDevice from 1 to 2
  202. 20:28:53 T:3288 M:1366282240   DEBUG: CAudioContext::RemoveActiveDevice - Removing device 1
  203. 20:28:53 T:3288 M:1366376448   DEBUG: CWDSound::direct_sound_enumerator_member_callback - found Device: Controlador primario de sonido
  204. 20:28:53 T:3288 M:1366376448   DEBUG: CWDSound::direct_sound_enumerator_member_callback - found Device: Realtek HD Audio output
  205. 20:28:53 T:3288 M:1366249472    INFO: Loading C:\Archivos de programa\XBMC3\addons\skin.confluence\sounds\sounds.xml
  206. 20:28:53 T:3288 M:1366245376    INFO:   skin loaded...
  207. 20:28:53 T:3288 M:1366245376   DEBUG: Activating window ID: 12999
  208. 20:28:53 T:3288 M:1366241280   DEBUG: Checking if window ID 12999 is locked.
  209. 20:28:53 T:3288 M:1366224896   DEBUG: ------ Window Init (Startup.xml) ------
  210. 20:28:53 T:3288 M:1366224896    INFO: Loading skin file: Startup.xml
  211. 20:28:53 T:3288 M:1366216704    INFO: removing tempfiles
  212. 20:28:53 T:3288 M:1366208512  NOTICE: initialize done
  213. 20:28:53 T:3288 M:1366208512  NOTICE: Running the application...
  214. 20:28:53 T:3288 M:1366204416   DEBUG: CApplication::ExecuteXBMCAction : Translating SetFocus(10)
  215. 20:28:53 T:3288 M:1366204416   DEBUG: CApplication::ExecuteXBMCAction : To SetFocus(10)
  216. 20:28:53 T:3288 M:1366196224   DEBUG: XBPython::Process - no profile autoexec.py (C:\Documents and Settings\Usuario\Datos de programa\XBMC\userdata\autoexec.py) found, skipping
  217. 20:28:53 T:3288 M:1366183936   DEBUG: CNetwork::NetworkMessage - Starting network services
  218. 20:28:53 T:3288 M:1366171648  NOTICE: ES: Starting event server
  219. 20:28:53 T:2652 M:1366142976   DEBUG: thread start, auto delete: 0
  220. 20:28:53 T:3288 M:1366102016   DEBUG: CLastfmScrobbler: Clearing session.
  221. 20:28:53 T:2652 M:1366102016  NOTICE: ES: Starting UDP Event server on 127.0.0.1:9777
  222. 20:28:53 T:3288 M:1366102016   DEBUG: CLibrefmScrobbler: Clearing session.
  223. 20:28:53 T:2752 M:1366044672   DEBUG: thread start, auto delete: 0
  224. 20:28:53 T:2652 M:1366036480  NOTICE: UDP: Listening on port 9777
  225. 20:28:53 T:2752 M:1366028288    INFO: JSONRPC Server: Successfully initialized
  226. 20:28:53 T:2648 M:1365901312   DEBUG: thread start, auto delete: 1
  227. 20:28:53 T:3288 M:1367015424   DEBUG: CApplication::ExecuteXBMCAction : Translating ReplaceWindow(Home)
  228. 20:28:53 T:3288 M:1366994944   DEBUG: CApplication::ExecuteXBMCAction : To ReplaceWindow(Home)
  229. 20:28:53 T:3288 M:1366990848   DEBUG: Activating window ID: 10000
  230. 20:28:53 T:3288 M:1366990848   DEBUG: Checking if window ID 10000 is locked.
  231. 20:28:53 T:3288 M:1366986752   DEBUG: ------ Window Deinit (Startup.xml) ------
  232. 20:28:53 T:3288 M:1366978560   DEBUG: ------ Window Init (Home.xml) ------
  233. 20:28:53 T:1388 M:1366339584   DEBUG: thread start, auto delete: 1
  234. 20:28:53 T:1388 M:1366335488    INFO: WEATHER: Downloading weather
  235. 20:28:53 T:1388 M:1366327296   DEBUG: Win32DllLoader::Load(special://xbmcbin/system/libcurl.dll)
  236. 20:28:53 T:1388 M:1366016000   DEBUG: Win32DllLoader::Load(special://xbmcbin/system/libidn-11.dll)
  237. 20:28:53 T:1156 M:1365233664   DEBUG: thread start, auto delete: 1
  238. 20:28:53 T:512 M:1361100800   DEBUG: thread start, auto delete: 0
  239. 20:28:53 T:1388 M:1361047552   DEBUG: Win32DllLoader::Load(special://xbmcbin/system/libeay32.dll)
  240. 20:28:53 T:1388 M:1361002496   DEBUG: Win32DllLoader::Load(special://xbmcbin/system/libssl32.dll)
  241. 20:28:53 T:3288 M:1359360000   DEBUG: CApplication::ExecuteXBMCAction : Translating SetFocus(9000)
  242. 20:28:53 T:3288 M:1359360000   DEBUG: CApplication::ExecuteXBMCAction : To SetFocus(9000)
  243. 20:28:53 T:1388 M:1357123584   DEBUG: Win32DllLoader::Load(ADVAPI32.DLL)
  244. 20:28:53 T:1388 M:1356939264   DEBUG: Win32DllLoader::Load(KERNEL32.DLL)
  245. 20:28:53 T:1388 M:1356664832   DEBUG: Win32DllLoader::Load(NETAPI32.DLL)
  246. 20:28:53 T:1388 M:1356668928   DEBUG: FreeLibrary(NETAPI32.DLL) -> 035D72C0
  247. 20:28:53 T:1388 M:1356668928   DEBUG: Win32DllLoader::Unload NETAPI32.DLL
  248. 20:28:53 T:1388 M:1356742656   DEBUG: FreeLibrary(ADVAPI32.DLL) -> 03557938
  249. 20:28:53 T:1388 M:1356742656   DEBUG: Win32DllLoader::Unload ADVAPI32.DLL
  250. 20:28:53 T:1388 M:1356754944   DEBUG: Win32DllLoader::Load(USER32.DLL)
  251. 20:28:53 T:1388 M:1356750848   DEBUG: FreeLibrary(USER32.DLL) -> 03557938
  252. 20:28:53 T:1388 M:1356750848   DEBUG: Win32DllLoader::Unload USER32.DLL
  253. 20:28:53 T:2648 M:1358028800   DEBUG: CImageLoader::DoWork - took 228 ms to load special://skin/backgrounds/videos.jpg
  254. 20:28:53 T:1156 M:1360633856   DEBUG: CImageLoader::DoWork - took 253 ms to load special://skin/backgrounds/videos.jpg
  255. 20:28:54 T:1388 M:1361637376   DEBUG: FreeLibrary(KERNEL32.DLL) -> 035EB4F8
  256. 20:28:54 T:1388 M:1361637376   DEBUG: Win32DllLoader::Unload KERNEL32.DLL
  257. 20:28:54 T:1388 M:1361588224   DEBUG: Win32DllLoader::Load(secur32.dll)
  258. 20:28:54 T:1388 M:1361530880   DEBUG: FileCurl::Open(0300FCD8) http://xoap.weather.com/weather/local/USNY0996?cc=*&unit=m&dayf=4&prod=xoap&link=xoap&par=1004124588&key=079f24145f208494
  259. 20:28:54 T:3288 M:1361477632   DEBUG: SDLKeyboard: scancode: 28, sym: 13, unicode: 13, modifier: 0
  260. 20:28:54 T:512 M:1361473536   DEBUG: FileCurl::Open(04B6FCE8) http://feeds.feedburner.com/xbmc
  261. 20:28:54 T:3288 M:1361465344   DEBUG: CApplication::OnKey: 61453 pressed, action is Select
  262. 20:28:54 T:1388 M:1361424384    INFO: XCURL::DllLibCurlGlobal::easy_aquire - Created session to http://xoap.weather.com
  263. 20:28:54 T:512 M:1361252352    INFO: XCURL::DllLibCurlGlobal::easy_aquire - Created session to http://feeds.feedburner.com
  264. 20:28:54 T:3288 M:1361235968   DEBUG: CApplication::ExecuteXBMCAction : Translating ActivateWindow(Videos)
  265. 20:28:54 T:3288 M:1361235968   DEBUG: CApplication::ExecuteXBMCAction : To ActivateWindow(Videos)
  266. 20:28:54 T:3288 M:1361235968   DEBUG: Activating window ID: 10024
  267. 20:28:54 T:3288 M:1361235968   DEBUG: Checking if window ID 10024 is locked.
  268. 20:28:54 T:3288 M:1361235968   DEBUG: ------ Window Deinit (Home.xml) ------
  269. 20:28:54 T:3288 M:1361154048   DEBUG: ------ Window Init (MyVideo.xml) ------
  270. 20:28:54 T:3288 M:1361154048    INFO: Loading skin file: MyVideo.xml
  271. 20:28:54 T:3288 M:1360396288   DEBUG: CGUIMediaWindow::GetDirectory ()
  272. 20:28:54 T:3288 M:1360388096   DEBUG:   ParentPath = []
  273. 20:28:54 T:4048 M:1360179200   DEBUG: thread start, auto delete: 0
  274. 20:28:54 T:4048 M:1360138240   DEBUG: Thread 4048 terminating
  275. 20:28:54 T:512 M:1358819328   DEBUG: FileCurl::Close(04B6FCE8) http://feeds.feedburner.com/xbmc
  276. 20:28:54 T:512 M:1358819328   DEBUG: Got rss feed: http://feeds.feedburner.com/xbmc
  277. 20:28:54 T:512 M:1358819328   DEBUG: Thread 512 terminating
  278. 20:28:55 T:1388 M:1358856192   DEBUG: FileCurl::Close(0300FCD8) http://xoap.weather.com/weather/local/USNY0996?cc=*&unit=m&dayf=4&prod=xoap&link=xoap&par=1004124588&key=079f24145f208494
  279. 20:28:55 T:1388 M:1358856192    INFO: WEATHER: Weather download successful
  280. 20:28:55 T:1388 M:1358852096   DEBUG: CZipManager::GetZipList - Processing zip://special%3a%2f%2fxbmc%2fmedia%2fweather%2ezip/
  281. 20:28:55 T:3288 M:1355440128   DEBUG: SDLKeyboard: scancode: 28, sym: 13, unicode: 13, modifier: 0
  282. 20:28:55 T:3288 M:1355440128   DEBUG: CApplication::OnKey: 61453 pressed, action is Select
  283. 20:28:55 T:3288 M:1355423744   DEBUG: CGUIMediaWindow::GetDirectory (H:\Videos\DivX\)
  284. 20:28:55 T:3288 M:1355423744   DEBUG:   ParentPath = []
  285. 20:28:55 T:2908 M:1355595776   DEBUG: thread start, auto delete: 0
  286. 20:28:55 T:2908 M:1356058624   DEBUG: Thread 2908 terminating
  287. 20:28:55 T:3288 M:1356353536   DEBUG: SDLKeyboard: scancode: 79, sym: 279, unicode: 0, modifier: 0
  288. 20:28:55 T:3288 M:1356353536   DEBUG: CApplication::OnKey: 61475 pressed, action is LastPage
  289. 20:28:56 T:3288 M:1356668928   DEBUG: SDLKeyboard: scancode: 28, sym: 13, unicode: 13, modifier: 0
  290. 20:28:56 T:3288 M:1356664832   DEBUG: CApplication::OnKey: 61453 pressed, action is Select
  291. 20:28:56 T:3288 M:1356529664   DEBUG: CPlayerCoreFactory::GetPlayers(H:\Videos\DivX\test.ts)
  292. 20:28:56 T:3288 M:1356529664   DEBUG: CPlayerSelectionRule::GetPlayers: considering rule: system rules
  293. 20:28:56 T:3288 M:1356529664   DEBUG: CPlayerSelectionRule::GetPlayers: matches rule: system rules
  294. 20:28:56 T:3288 M:1356529664   DEBUG: CPlayerSelectionRule::GetPlayers: considering rule: rtv
  295. 20:28:56 T:3288 M:1356529664   DEBUG: CPlayerSelectionRule::GetPlayers: considering rule: hdhomerun/myth/rtmp/mms/udp
  296. 20:28:56 T:3288 M:1356529664   DEBUG: CPlayerSelectionRule::GetPlayers: considering rule: lastfm/shout
  297. 20:28:56 T:3288 M:1356529664   DEBUG: CPlayerSelectionRule::GetPlayers: considering rule: rtsp
  298. 20:28:56 T:3288 M:1356529664   DEBUG: CPlayerSelectionRule::GetPlayers: considering rule: streams
  299. 20:28:56 T:3288 M:1356529664   DEBUG: CPlayerSelectionRule::GetPlayers: considering rule: dvd
  300. 20:28:56 T:3288 M:1356529664   DEBUG: CPlayerSelectionRule::GetPlayers: considering rule: dvdfile
  301. 20:28:56 T:3288 M:1356529664   DEBUG: CPlayerSelectionRule::GetPlayers: considering rule: dvdimage
  302. 20:28:56 T:3288 M:1356529664   DEBUG: CPlayerSelectionRule::GetPlayers: considering rule: sdp/asf
  303. 20:28:56 T:3288 M:1356529664   DEBUG: CPlayerSelectionRule::GetPlayers: considering rule: nsv
  304. 20:28:56 T:3288 M:1356529664   DEBUG: CPlayerCoreFactory::GetPlayers: matched 0 rules with players
  305. 20:28:56 T:3288 M:1356513280   DEBUG: CPlayerCoreFactory::GetPlayers: adding videodefaultplayer (1)
  306. 20:28:56 T:3288 M:1356513280   DEBUG: CPlayerCoreFactory::GetPlayers: for video=1, audio=0
  307. 20:28:56 T:3288 M:1356513280   DEBUG: CPlayerCoreFactory::GetPlayers: for video=1, audio=1
  308. 20:28:56 T:3288 M:1356513280   DEBUG: CPlayerCoreFactory::GetPlayers: adding player: DVDPlayer (1)
  309. 20:28:56 T:3288 M:1356513280   DEBUG: CPlayerCoreFactory::GetPlayers: added 1 players
  310. 20:28:56 T:3288 M:1355218944  NOTICE: DVDPlayer: Opening: H:\Videos\DivX\test.ts
  311. 20:28:56 T:3288 M:1355214848 WARNING: CDVDMessageQueue(player)::Put MSGQ_NOT_INITIALIZED
  312. 20:28:56 T:2964 M:1355206656   DEBUG: thread start, auto delete: 0
  313. 20:28:56 T:2964 M:1355198464  NOTICE: Creating InputStream
  314. 20:28:56 T:2964 M:1355165696    INFO: CDVDFactorySubtitle::GetSubtitles, searching subtitles
  315. 20:28:56 T:2964 M:1355165696   DEBUG: CUtil::CacheSubtitles: START
  316. 20:28:56 T:2964 M:1355161600   DEBUG: CUtil::CacheSubtitles: Checking for common subdirs...
  317. 20:28:56 T:2964 M:1355157504   DEBUG: CUtil::CacheSubtitles: Done (time: 2 ms)
  318. 20:28:56 T:2964 M:1355153408   DEBUG: CUtil::CacheSubtitles: Searching for subtitles...
  319. 20:28:56 T:2964 M:1355149312   DEBUG: CUtil::CacheSubtitles: Done (time: 2 ms)
  320. 20:28:56 T:2964 M:1355149312   DEBUG: CUtil::CacheSubtitles: END (total time: 5 ms)
  321. 20:28:56 T:2964 M:1355149312    INFO: CDVDFactorySubtitle::GetSubtitles, searching subtitles done
  322. 20:28:56 T:2964 M:1355149312  NOTICE: Creating Demuxer
  323. 20:28:56 T:2964 M:1355100160   DEBUG: Win32DllLoader::Load(special://xbmcbin/system/players/dvdplayer/avutil-50.dll)
  324. 20:28:56 T:2964 M:1355046912   DEBUG: Win32DllLoader::Load(special://xbmcbin/system/players/dvdplayer/avcodec-52.dll)
  325. 20:28:56 T:2964 M:1351335936   DEBUG: Win32DllLoader::Load(special://xbmcbin/system/players/dvdplayer/libfaad.dll)
  326. 20:28:56 T:2964 M:1351315456   DEBUG: Win32DllLoader::Load(special://xbmcbin/system/players/dvdplayer/avformat-52.dll)
  327. 20:28:56 T:2964 M:1350787072   DEBUG: CDVDDemuxFFmpeg::Open - probing detected format [mpegts]
  328. 20:28:56 T:2964 M:1350479872   DEBUG: CDVDDemuxFFmpeg::Open - av_find_stream_info starting
  329. 20:28:56 T:2964 M:1349136384   ERROR: ffmpeg[B94]: [h264] non-existing PPS referenced
  330. 20:28:56 T:2964 M:1349050368   ERROR: ffmpeg[B94]: [h264] non-existing PPS 0 referenced
  331. 20:28:56 T:2964 M:1349050368   ERROR: ffmpeg[B94]: [h264] decode_slice_header error
  332. 20:28:56 T:2964 M:1349050368   ERROR: ffmpeg[B94]: [h264] no frame!
  333. 20:28:56 T:2964 M:1349074944   ERROR: ffmpeg[B94]: [h264] non-existing PPS referenced
  334. 20:28:56 T:2964 M:1349001216   ERROR: ffmpeg[B94]: [h264] non-existing PPS 0 referenced
  335. 20:28:56 T:2964 M:1349001216   ERROR: ffmpeg[B94]: [h264] decode_slice_header error
  336. 20:28:56 T:2964 M:1349001216   ERROR: ffmpeg[B94]: [h264] no frame!
  337. 20:28:56 T:2964 M:1348968448   ERROR: ffmpeg[B94]: [h264] non-existing PPS referenced
  338. 20:28:56 T:2964 M:1348927488   ERROR: ffmpeg[B94]: [h264] non-existing PPS 0 referenced
  339. 20:28:56 T:2964 M:1348927488   ERROR: ffmpeg[B94]: [h264] decode_slice_header error
  340. 20:28:56 T:2964 M:1348927488   ERROR: ffmpeg[B94]: [h264] no frame!
  341. 20:28:56 T:2964 M:1348898816   ERROR: ffmpeg[B94]: [h264] non-existing PPS referenced
  342. 20:28:56 T:2964 M:1348857856   ERROR: ffmpeg[B94]: [h264] non-existing PPS 0 referenced
  343. 20:28:56 T:2964 M:1348857856   ERROR: ffmpeg[B94]: [h264] decode_slice_header error
  344. 20:28:56 T:2964 M:1348857856   ERROR: ffmpeg[B94]: [h264] no frame!
  345. 20:28:56 T:2964 M:1348820992   ERROR: ffmpeg[B94]: [h264] non-existing PPS referenced
  346. 20:28:56 T:2964 M:1348792320   ERROR: ffmpeg[B94]: [h264] non-existing PPS 0 referenced
  347. 20:28:56 T:2964 M:1348792320   ERROR: ffmpeg[B94]: [h264] decode_slice_header error
  348. 20:28:56 T:2964 M:1348792320   ERROR: ffmpeg[B94]: [h264] no frame!
  349. 20:28:56 T:2964 M:1348759552   ERROR: ffmpeg[B94]: [h264] non-existing PPS referenced
  350. 20:28:56 T:2964 M:1348730880   ERROR: ffmpeg[B94]: [h264] non-existing PPS 0 referenced
  351. 20:28:56 T:2964 M:1348730880   ERROR: ffmpeg[B94]: [h264] decode_slice_header error
  352. 20:28:56 T:2964 M:1348730880   ERROR: ffmpeg[B94]: [h264] no frame!
  353. 20:28:56 T:2964 M:1348730880   ERROR: ffmpeg[B94]: [h264] non-existing PPS referenced
  354. 20:28:56 T:2964 M:1348710400   ERROR: ffmpeg[B94]: [h264] non-existing PPS 0 referenced
  355. 20:28:56 T:2964 M:1348710400   ERROR: ffmpeg[B94]: [h264] decode_slice_header error
  356. 20:28:56 T:2964 M:1348710400   ERROR: ffmpeg[B94]: [h264] no frame!
  357. 20:28:56 T:2964 M:1348333568   ERROR: ffmpeg[B94]: [h264] non-existing PPS referenced
  358. 20:28:56 T:2964 M:1348313088   ERROR: ffmpeg[B94]: [h264] non-existing PPS 0 referenced
  359. 20:28:56 T:2964 M:1348313088   ERROR: ffmpeg[B94]: [h264] decode_slice_header error
  360. 20:28:56 T:2964 M:1348313088   ERROR: ffmpeg[B94]: [h264] no frame!
  361. 20:28:56 T:3288 M:1327751168   DEBUG: ------ Window Init (DialogBusy.xml) ------
  362. 20:28:56 T:2964 M:1323626496   ERROR: ffmpeg[B94]: [h264] mmco: unref short failure
  363. 20:28:56 T:2964 M:1348284416   DEBUG: ffmpeg[B94]: [NULL] start time is not set in av_estimate_timings_from_pts
  364. 20:28:56 T:2964 M:1349038080   DEBUG: CDVDDemuxFFmpeg::Open - av_find_stream_info finished
  365. 20:28:56 T:2964 M:1349029888    INFO: ffmpeg[B94]: Input #0, mpegts, from 'H:\Videos\DivX\test.ts':
  366. 20:28:56 T:2964 M:1349029888    INFO: ffmpeg[B94]:   Duration: 00:00:31.49, start: 6831.105711, bitrate: 18763 kb/s
  367. 20:28:56 T:2964 M:1349029888    INFO: ffmpeg[B94]:   Program 129
  368. 20:28:56 T:2964 M:1349025792    INFO: ffmpeg[B94]:     Stream #0.0[0x20](deu): Subtitle: [6][0][0][0] / 0x0006
  369. 20:28:56 T:2964 M:1349025792    INFO: ffmpeg[B94]:     Stream #0.1[0x2ff]: Video: h264, yuv420p, 1920x1080 [PAR 1:1 DAR 16:9], 79.17 fps, 50 tbr, 90k tbn, 50 tbc
  370. 20:28:56 T:2964 M:1349025792    INFO: ffmpeg[B94]:     Stream #0.2[0x304](eng): Audio: ac3, 48000 Hz, stereo, s16, 384 kb/s
  371. 20:28:56 T:2964 M:1349009408  NOTICE: Opening video stream: 1 source: 256
  372. 20:28:56 T:2964 M:1349009408  NOTICE: Creating video codec with codec id: 28
  373. 20:28:56 T:2964 M:1349009408   DEBUG: CDVDFactoryCodec: compiled in hardware support: CrystalHD:yes DXVA:yes
  374. 20:28:56 T:2964 M:1349009408    INFO: Trying Broadcom Crystal HD Decoder...
  375. 20:28:56 T:2964 M:1349005312   DEBUG: FactoryCodec - Video:  - Opening
  376. 20:28:57 T:2964 M:1248964608   DEBUG: Win32DllLoader::Load(special://xbmcbin/system/players/dvdplayer/swscale-0.6.1.dll)
  377. 20:28:57 T:2988 M:1248890880   DEBUG: thread start, auto delete: 0
  378. 20:28:57 T:2988 M:1248886784   DEBUG: CrystalHD: Output Thread Started...
  379. 20:28:57 T:2964 M:1248886784   DEBUG: CrystalHD: codec opened
  380. 20:28:57 T:2964 M:1248886784    INFO: DVDVideoCodecCrystalHD: Opened Broadcom Crystal HD Codec
  381. 20:28:57 T:2964 M:1248886784   DEBUG: FactoryCodec - Video: chd-h264 - Opened
  382. 20:28:57 T:2964 M:1248882688  NOTICE: Creating video thread
  383. 20:28:57 T:2964 M:1248878592  NOTICE: Opening audio stream: 2 source: 256
  384. 20:28:57 T:2964 M:1248878592  NOTICE: Finding audio codec for: 86020
  385. 20:28:57 T:2964 M:1248858112   DEBUG: FactoryCodec - Audio: liba52 - Opening
  386. 20:28:57 T:2964 M:1248858112   DEBUG: Win32DllLoader::Load(special://xbmcbin/system/players/dvdplayer/liba52.dll)
  387. 20:28:57 T:2992 M:1248759808   DEBUG: thread start, auto delete: 0
  388. 20:28:57 T:2964 M:1248727040   DEBUG: FactoryCodec - Audio: liba52 - Opened
  389. 20:28:57 T:2964 M:1248727040  NOTICE: Creating audio thread
  390. 20:28:57 T:2964 M:1248718848  NOTICE: Opening teletext stream: 0 source: 256
  391. 20:28:57 T:2964 M:1248718848  NOTICE: Creating teletext data thread
  392. 20:28:57 T:2996 M:1248718848   DEBUG: thread start, auto delete: 0
  393. 20:28:57 T:2996 M:1248698368  NOTICE: running thread: CDVDPlayerAudio::Process()
  394. 20:28:57 T:2964 M:1248694272   DEBUG: CEdl::ReadEditDecisionLists - Adjusting detected frame rate by half assuming 1080i (interlaced): 50.000
  395. 20:28:57 T:2964 M:1248694272   DEBUG: CEdl::ReadEditDecisionLists - Checking for edit decision lists (EDL) on local drive or remote share for: H:\Videos\DivX\test.ts
  396. 20:28:57 T:2660 M:1248694272   DEBUG: thread start, auto delete: 0
  397. 20:28:57 T:2660 M:1248686080  NOTICE: running thread: CDVDTeletextData
  398. 20:28:57 T:2964 M:1248661504   DEBUG: CDVDPlayer::SetCaching - caching state 2
  399. 20:28:57 T:2996 M:1247625216   DEBUG: CDVDPlayerAudio - CDVDMsg::GENERAL_RESYNC(0.111111, 0)
  400. 20:28:57 T:2996 M:1247350784  NOTICE: Creating audio device with codec id: 86020, channels: 2, sample rate: 48000, no pass-through
  401. 20:28:57 T:2996 M:1247322112    INFO: AudioRendererFactory:  not a explicit device, trying to autodetect.
  402. 20:28:57 T:2996 M:1247309824    INFO: CPCMRemap: Configured speaker layout: 2.0
  403. 20:28:57 T:2996 M:1247305728    INFO: CPCMRemap: I channel map: FL,FR
  404. 20:28:57 T:2996 M:1247305728    INFO: CPCMRemap: O channel map: FL,FR
  405. 20:28:57 T:2996 M:1247305728   DEBUG: CPCMRemap: Downmix normalization is disabled
  406. 20:28:57 T:2996 M:1247297536   DEBUG: CPCMRemap: FL = FL(1.000000*)
  407. 20:28:57 T:2996 M:1247281152   DEBUG: CPCMRemap: FR = FR(1.000000*)
  408. 20:28:57 T:2996 M:1247240192   DEBUG: CWin32DirectSound::Initialize: Packet Size = 12384. Avg Bytes Per Second = 192000.
  409. 20:28:57 T:2996 M:1246969856   DEBUG: CWin32DirectSound::Initialize: secondary buffer created
  410. 20:28:57 T:2996 M:1246932992   DEBUG: CWin32DirectSound::Initialize - Channels: 2 - SampleRate: 48000 - SampleBit: 16 - Resample false - IsMusic false - IsPassthrough false - audioDevice: Default
  411. 20:28:57 T:2996 M:1246896128   DEBUG: CDVDPlayerAudio:: synctype set to 0: clock feedback
  412. 20:28:57 T:2964 M:1246797824   DEBUG: CDVDPlayer::HandleMessages - player started 1
  413. 20:28:57 T:2992 M:1246642176  NOTICE: running thread: video_thread
  414. 20:28:57 T:2992 M:1246601216   DEBUG: CDVDPlayerVideo - CDVDMsg::GENERAL_SYNCHRONIZE
  415. 20:28:57 T:2992 M:1246593024   DEBUG: CDVDPlayerVideo - CDVDMsg::GENERAL_RESYNC(416433.444444, 1)
  416. 20:28:57 T:3288 M:1246523392   DEBUG: CGUIAudioManager::DeInitialize
  417. 20:28:57 T:3288 M:1246351360   DEBUG: CAnnouncementManager - Announcement: PlaybackStarted from xbmc
  418. 20:28:57 T:3288 M:1221160960   DEBUG: CGUIInfoManager::SetCurrentMovie(H:\Videos\DivX\test.ts)
  419. 20:28:57 T:3288 M:1221099520   DEBUG: CVideoDatabase::GetMovieId (H:\Videos\DivX\test.ts), query = select idMovie from movie where idFile=2
  420. 20:28:57 T:3288 M:1221091328   DEBUG: CVideoDatabase::GetEpisodeId (H:\Videos\DivX\test.ts), query = select idEpisode from episode where idFile=2
  421. 20:28:57 T:3288 M:1221079040   DEBUG: CVideoDatabase::GetMusicVideoId (H:\Videos\DivX\test.ts), query = select idMVideo from musicvideo where idFile=2
  422. 20:28:57 T:3288 M:1221148672   DEBUG: ------ Window Deinit (DialogBusy.xml) ------
  423. 20:28:57 T:2988 M:1222905856   DEBUG: CrystalHD: Format Change Detected. Flags: 0x00030000
  424. 20:28:57 T:2988 M:1222901760   DEBUG: ----------------------------------
  425. 20:28:57 T:2988 M:1222901760   DEBUG:   TimeStamp: 0
  426. 20:28:57 T:2988 M:1222901760   DEBUG:   Picture Number: 0
  427. 20:28:57 T:2988 M:1222901760   DEBUG:   Width: 1920
  428. 20:28:57 T:2988 M:1222901760   DEBUG:   Height: 1080
  429. 20:28:57 T:2988 M:1222901760   DEBUG:   Chroma: 0x420
  430. 20:28:57 T:2988 M:1222901760   DEBUG:   Pulldown: 3
  431. 20:28:57 T:2988 M:1222901760   DEBUG:   Flags: 0x80040028
  432. 20:28:57 T:2988 M:1222901760   DEBUG:   Frame Rate/Res: 0
  433. 20:28:57 T:2988 M:1222901760   DEBUG:   Aspect Ratio: 1
  434. 20:28:57 T:2988 M:1222901760   DEBUG:   Color Primaries: 1
  435. 20:28:57 T:2988 M:1222901760   DEBUG:   MetaData: 657664
  436. 20:28:57 T:2988 M:1222901760   DEBUG:   Session Number: 0
  437. 20:28:57 T:2988 M:1222901760   DEBUG:   TimeStamp: 0
  438. 20:28:57 T:2988 M:1222901760   DEBUG:   Custom Aspect: 0
  439. 20:28:57 T:2988 M:1222901760   DEBUG:   Frames to Drop: 0
  440. 20:28:57 T:2988 M:1222901760   DEBUG:   H264 Valid Fields: 0x00000000
  441. 20:28:57 T:2988 M:1222901760   DEBUG: CrystalHD: dec_par x = 1, dec_par y = 1
  442. 20:28:57 T:2988 M:1222901760   DEBUG: CrystalHD: resolution = 0  interlace = 0
  443. 20:28:57 T:2992 M:1219747840  NOTICE:  fps: 50.000000, pwidth: 1920, pheight: 1080, dwidth: 1920, dheight: 1080
  444. 20:28:57 T:2992 M:1219747840   DEBUG: CDVDPlayerVideo::OutputPicture - change configuration. 1920x1080. framerate: 50.00. format: YV12
  445. 20:28:57 T:2992 M:1219747840  NOTICE: Display resolution DESKTOP : 1024x768 @ 85.00 - Full Screen (12)
  446. 20:28:57 T:2992 M:1219747840   DEBUG: CWinRenderer::SelectRenderMethod: Requested render method: 0
  447. 20:28:57 T:2992 M:1219747840   DEBUG: CWinShader::LoadEffect - loading shader special://xbmc/system/shaders/testshader.fx
  448. 20:28:57 T:2992 M:1219723264   DEBUG: CWinRenderer::SelectRenderMethod: Selected render method 1: Pixel Shaders
  449. 20:28:57 T:3288 M:1219723264   DEBUG: Activating window ID: 12005
  450. 20:28:57 T:3288 M:1219756032   DEBUG: Checking if window ID 12005 is locked.
  451. 20:28:57 T:3288 M:1219760128   DEBUG: ------ Window Deinit (MyVideo.xml) ------
  452. 20:28:57 T:3288 M:1219760128   DEBUG: ------ Window Init (VideoFullScreen.xml) ------
  453. 20:28:57 T:3288 M:1219760128    INFO: Loading skin file: VideoFullScreen.xml
  454. 20:28:57 T:2964 M:1219616768   DEBUG: CDVDPlayer::HandleMessages - player started 2
  455. 20:28:57 T:2964 M:1219616768   DEBUG: CDVDPlayer::SetCaching - caching state 3
  456. 20:28:57 T:2996 M:1219616768   DEBUG: CDVDPlayerAudio:: Discontinuity - was:412346.891544, should be:0.111111, error:-412346.780433
  457. 20:28:57 T:2996 M:1219616768   DEBUG: CWin32DirectSound::CheckPlayStatus: Resuming Playback
  458. 20:28:57 T:2964 M:1219612672   DEBUG: CDVDPlayer::SetCaching - caching state 0
  459. 20:28:57 T:3288 M:1207857152   DEBUG: created video buffer 0
  460. 20:28:57 T:3288 M:1204744192   DEBUG: created video buffer 1
  461. 20:28:57 T:3288 M:1204744192   DEBUG: CWinShader::LoadEffect - loading shader special://xbmc/system/shaders/yuv2rgb_d3d.fx
  462. 20:28:58 T:3288 M:1183133696   DEBUG: SDLKeyboard: scancode: 24, sym: 111, unicode: 111, modifier: 0
  463. 20:28:58 T:3288 M:1183129600   DEBUG: CApplication::OnKey: 61519 pressed, action is CodecInfo
  464. 20:28:58 T:2996 M:1183125504   DEBUG: CDVDPlayerAudio:: Discontinuity - was:1039750.414572, should be:1029119.756383, error:-10630.658189
  465. 20:29:03 T:2992 M:1189781504   DEBUG: CPullupCorrection: detected pattern of length 1: 40000.00
  466. 20:29:25 T:3288 M:1198485504   DEBUG: Previous line repeats 3 times.
  467. 20:29:25 T:3288 M:1198485504    INFO: XCURL::DllLibCurlGlobal::CheckIdle - Closing session to http://feeds.feedburner.com (easy=04EB7758, multi=04EBFFB0)
  468. 20:29:25 T:1156 M:1199489024   DEBUG: Thread 1156 terminating (autodelete)
  469. 20:29:25 T:2648 M:1199575040   DEBUG: Thread 2648 terminating (autodelete)
  470. 20:29:25 T:3288 M:1200041984    INFO: XCURL::DllLibCurlGlobal::CheckIdle - Closing session to http://xoap.weather.com (easy=04EA8AA8, multi=003C5368)
  471. 20:29:25 T:3288 M:1200488448   DEBUG: FreeLibrary(secur32.dll) -> 035EB4F8
  472. 20:29:25 T:3288 M:1200488448   DEBUG: Win32DllLoader::Unload secur32.dll
  473. 20:29:25 T:1388 M:1200726016   DEBUG: Thread 1388 terminating (autodelete)
  474. 20:29:27 T:2996 M:1203163136   DEBUG: CDVDPlayerAudio - CDVDMsg::GENERAL_EOF
  475. 20:29:27 T:2996 M:1203163136   DEBUG: CDVDAudio::Drain - adding 8736 bytes of silence, buffer size: 3648, chunk size: 12384
  476. 20:29:27 T:2996 M:1203167232 WARNING: CDVDMessageQueue(audio)::Get - asked for new data packet, with nothing available
  477. 20:29:27 T:3288 M:1203552256   DEBUG: SECTION:UnloadDelayed(SECTION: LCODE)
  478. 20:29:27 T:3288 M:1203847168   DEBUG: SECTION:UnloadDelayed(DLL: special://xbmcbin/system/ImageLib.dll)
  479. 20:29:27 T:3288 M:1203847168   DEBUG: Win32DllLoader::Unload ImageLib.dll
  480. 20:29:27 T:2992 M:1205100544   DEBUG: CPullupCorrection: detected pattern of length 1: 40000.00
  481. 20:29:28 T:2992 M:1206366208 WARNING: CDVDMessageQueue(video)::Get - asked for new data packet, with nothing available
  482. 20:29:28 T:2964 M:1206366208  NOTICE: CDVDPlayer::OnExit()
  483. 20:29:28 T:2964 M:1206366208  NOTICE: DVDPlayer: eof, waiting for queues to empty
  484. 20:29:28 T:2964 M:1206366208  NOTICE: DVDPlayer: closing audio stream
  485. 20:29:28 T:2964 M:1206366208  NOTICE: Closing audio stream
  486. 20:29:28 T:2964 M:1206366208  NOTICE: CDVDMessageQueue(audio)::WaitUntilEmpty
  487. 20:29:28 T:2996 M:1206366208   DEBUG: CDVDPlayerAudio - CDVDMsg::GENERAL_SYNCHRONIZE
  488. 20:29:28 T:2964 M:1206366208  NOTICE: Waiting for audio thread to exit
  489. 20:29:28 T:2996 M:1206366208   DEBUG: CDVDPlayerAudio::Process - Abort received, exiting thread
  490. 20:29:28 T:2996 M:1206366208  NOTICE: thread end: CDVDPlayerAudio::OnExit()
  491. 20:29:28 T:2996 M:1206366208   DEBUG: Thread 2996 terminating
  492. 20:29:28 T:2964 M:1206665216  NOTICE: Closing audio device
  493. 20:29:28 T:2992 M:1206648832    INFO: CDVDPlayerVideo - Stillframe detected, switching to forced 50.000000 fps
  494. 20:29:29 T:2964 M:1206718464   DEBUG: CWin32DirectSound::WaitCompletion - timeout waiting for silence
  495. 20:29:29 T:2964 M:1206718464   DEBUG: CWin32DirectSound::Deinitialize: Cleaning up
  496. 20:29:29 T:2964 M:1206915072  NOTICE: Deleting audio codec
  497. 20:29:29 T:2964 M:1206931456  NOTICE: DVDPlayer: closing video stream
  498. 20:29:29 T:2964 M:1206931456  NOTICE: Closing video stream
  499. 20:29:29 T:2964 M:1206931456  NOTICE: CDVDMessageQueue(video)::WaitUntilEmpty
  500. 20:29:29 T:2992 M:1206931456   DEBUG: CDVDPlayerVideo - CDVDMsg::GENERAL_SYNCHRONIZE
  501. 20:29:29 T:2964 M:1206931456  NOTICE: waiting for video thread to exit
  502. 20:29:29 T:2992 M:1206931456   ERROR: Got MSGQ_ABORT or MSGO_IS_ERROR return true
  503. 20:29:29 T:2992 M:1206931456  NOTICE: thread end: video_thread
  504. 20:29:29 T:2992 M:1206931456   DEBUG: Thread 2992 terminating
  505. 20:29:29 T:2964 M:1206976512  NOTICE: deleting video codec
  506. 20:29:29 T:2988 M:1206972416   DEBUG: CrystalHD: Output Thread Stopped...
  507. 20:29:29 T:2988 M:1206972416   DEBUG: Thread 2988 terminating
  508. 20:29:29 T:2964 M:1241837568   DEBUG: CrystalHD: codec closed
  509. 20:29:29 T:2964 M:1241837568  NOTICE: DVDPlayer: closing teletext stream
  510. 20:29:29 T:2964 M:1241837568  NOTICE: Closing teletext stream
  511. 20:29:29 T:2964 M:1241837568  NOTICE: CDVDMessageQueue(teletext)::WaitUntilEmpty
  512. 20:29:29 T:2964 M:1241837568  NOTICE: waiting for teletext data thread to exit
  513. 20:29:29 T:2660 M:1241837568   ERROR: Got MSGQ_ABORT or MSGO_IS_ERROR return true (-1)
  514. 20:29:29 T:2660 M:1241837568  NOTICE: thread end: data_thread
  515. 20:29:29 T:2660 M:1241837568   DEBUG: Thread 2660 terminating
  516. 20:29:29 T:2964 M:1243938816  NOTICE: CDVDPlayer::OnExit() deleting demuxer
  517. 20:29:29 T:2964 M:1243967488  NOTICE: CDVDPlayer::OnExit() deleting input stream
  518. 20:29:29 T:2964 M:1243967488   DEBUG: CAnnouncementManager - Announcement: PlaybackEnded from xbmc
  519. 20:29:29 T:2964 M:1243967488   DEBUG: Thread 2964 terminating
  520. 20:29:29 T:3288 M:1244049408   DEBUG: CGUIAudioManager::Initialize
  521. 20:29:29 T:3288 M:1244049408   DEBUG: CGUIWindowManager::PreviousWindow: Deactivate
  522. 20:29:29 T:3288 M:1244049408   DEBUG: ------ Window Deinit (VideoFullScreen.xml) ------
  523. 20:29:29 T:3288 M:1244110848   DEBUG: CGUIWindowManager::PreviousWindow: Activate new
  524. 20:29:29 T:3288 M:1244086272   DEBUG: ------ Window Init (MyVideo.xml) ------
  525. 20:29:29 T:3288 M:1244086272    INFO: Loading skin file: MyVideo.xml
  526. 20:29:29 T:3288 M:1246724096   DEBUG: CGUIMediaWindow::GetDirectory (H:\Videos\DivX\)
  527. 20:29:29 T:3288 M:1246715904   DEBUG:   ParentPath = [H:\Videos\DivX\]
  528. 20:29:29 T:3084 M:1246605312   DEBUG: thread start, auto delete: 0
  529. 20:29:29 T:1288 M:1246568448   DEBUG: thread start, auto delete: 1
  530. 20:29:29 T:1288 M:1245040640   DEBUG: Win32DllLoader::Load(special://xbmcbin/system/ImageLib.dll)
  531. 20:29:29 T:3288 M:1241993216  NOTICE: CDVDPlayer::CloseFile()
  532. 20:29:29 T:3288 M:1241993216 WARNING: CDVDMessageQueue(player)::Put MSGQ_NOT_INITIALIZED
  533. 20:29:29 T:3288 M:1241989120  NOTICE: DVDPlayer: waiting for threads to exit
  534. 20:29:29 T:3288 M:1241980928  NOTICE: DVDPlayer: finished waiting
  535. 20:29:29 T:3648 M:1251262464   DEBUG: thread start, auto delete: 1
  536. 20:29:29 T:3648 M:1250869248   DEBUG: CSaveFileStateJob::DoWork - Saving file state for video item H:\Videos\DivX\test.ts
  537. 20:29:29 T:3488 M:1249955840   DEBUG: thread start, auto delete: 1
  538. 20:29:29 T:3084 M:1249951744   DEBUG: Thread 3084 terminating
  539. 20:29:29 T:3484 M:1249927168   DEBUG: thread start, auto delete: 1
  540. 20:29:29 T:3648 M:1248456704   DEBUG: CSaveFileStateJob::DoWork - Marking video item H:\Videos\DivX\test.ts as watched
  541. 20:29:30 T:1288 M:1249411072   DEBUG: CImageLoader::DoWork - took 221 ms to load special://skin/backgrounds/videos.jpg
  542. 20:29:30 T:3288 M:1248288768   DEBUG: SDLKeyboard: scancode: 56, sym: 308, unicode: 0, modifier: 0
  543. 20:29:30 T:3288 M:1250582528   DEBUG: CWinEventsWin32::WndProcWindow is active
  544. 20:29:30 T:3288 M:1250582528   DEBUG: CWinEventsWin32::WndProcWindow lost focus
  545. 20:29:30 T:3288 M:1250725888   DEBUG: CRenderSystemDX::PresentRenderImpl - Present failed with hr=-2147467259
  546. 20:29:30 T:3488 M:1250725888   DEBUG: Thread 3488 terminating (autodelete)
  547. 20:29:30 T:1288 M:1250725888   DEBUG: Thread 1288 terminating (autodelete)
  548. 20:29:30 T:3484 M:1250725888   DEBUG: Thread 3484 terminating (autodelete)
  549. 20:29:30 T:3648 M:1250725888   DEBUG: Thread 3648 terminating (autodelete)
  550. 20:29:30 T:3288 M:1250725888   DEBUG: CAnnouncementManager - Announcement: ApplicationStop from xbmc
  551. 20:29:30 T:3288 M:1250709504  NOTICE: Storing total System Uptime
  552. 20:29:30 T:3288 M:1250705408  NOTICE: Saving settings
  553. 20:29:30 T:3288 M:1250607104  NOTICE: stop all
  554. 20:29:30 T:3288 M:1250607104   DEBUG: CNetwork::NetworkMessage - Signaling network services to stop
  555. 20:29:30 T:3288 M:1250607104  NOTICE: ES: Stopping event server
  556. 20:29:30 T:3288 M:1250607104   DEBUG: CNetwork::NetworkMessage - Waiting for network services to stop
  557. 20:29:31 T:2652 M:1251430400  NOTICE: ES: UDP Event server stopped
  558. 20:29:31 T:2752 M:1251426304   DEBUG: Thread 2752 terminating
  559. 20:29:31 T:2652 M:1251454976   DEBUG: Thread 2652 terminating
  560. 20:29:31 T:3288 M:1251479552  NOTICE: stop sap announcement listener
  561. 20:29:31 T:3288 M:1251479552  NOTICE: clean cached files!
  562. 20:29:31 T:3288 M:1251475456  NOTICE: unload skin
  563. 20:29:31 T:3288 M:1251475456   DEBUG: CGUIAudioManager::DeInitialize
  564. 20:29:31 T:3288 M:1251479552   DEBUG: ------ Window Deinit (MyVideo.xml) ------
  565. 20:29:31 T:3288 M:1251487744   DEBUG: ------ Window Deinit (Pointer.xml) ------
  566. 20:29:31 T:3288 M:1251487744   DEBUG: ------ Window Deinit (DialogMuteBug.xml) ------
  567. 20:29:31 T:3288 M:1359020032    INFO: CrystalHD: device closed
  568. 20:29:31 T:3288 M:1359020032  NOTICE: stop python
  569. 20:29:31 T:3288 M:1362083840  NOTICE: stopped
  570. 20:29:31 T:3288 M:1362083840  NOTICE: destroy
  571. 20:29:31 T:3288 M:1362083840   DEBUG: ADDON: cpluff: 'Plug-in metadata.albums.allmusic.com has been uninstalled.'
  572. 20:29:31 T:3288 M:1362083840   DEBUG: ADDON: cpluff: 'Plug-in repository.xbmc.org has been uninstalled.'
  573. 20:29:31 T:3288 M:1362083840   DEBUG: ADDON: cpluff: 'Plug-in screensaver.rsxs.euphoria has been uninstalled.'
  574. 20:29:31 T:3288 M:1362083840   DEBUG: ADDON: cpluff: 'Plug-in screensaver.xbmc.builtin.black has been uninstalled.'
  575. 20:29:31 T:3288 M:1362083840   DEBUG: ADDON: cpluff: 'Plug-in visualization.projectm has been uninstalled.'
  576. 20:29:31 T:3288 M:1362083840   DEBUG: ADDON: cpluff: 'Plug-in screensaver.xbmc.builtin.dim has been uninstalled.'
  577. 20:29:31 T:3288 M:1362083840   DEBUG: ADDON: cpluff: 'Plug-in metadata.artists.allmusic.com has been uninstalled.'
  578. 20:29:31 T:3288 M:1362083840   DEBUG: ADDON: cpluff: 'Plug-in metadata.themoviedb.org has been uninstalled.'
  579. 20:29:31 T:3288 M:1362083840   DEBUG: ADDON: cpluff: 'Plug-in xbmc.metadata has been uninstalled.'
  580. 20:29:31 T:3288 M:1362083840   DEBUG: ADDON: cpluff: 'Plug-in skin.confluence has been uninstalled.'
  581. 20:29:31 T:3288 M:1362083840   DEBUG: ADDON: cpluff: 'Plug-in visualization.glspectrum has been uninstalled.'
  582. 20:29:31 T:3288 M:1362083840   DEBUG: ADDON: cpluff: 'Plug-in script.module.pil has been uninstalled.'
  583. 20:29:31 T:3288 M:1362083840   DEBUG: ADDON: cpluff: 'Plug-in visualization.milkdrop has been uninstalled.'
  584. 20:29:31 T:3288 M:1362083840   DEBUG: ADDON: cpluff: 'Plug-in xbmc.gui has been uninstalled.'
  585. 20:29:31 T:3288 M:1362083840   DEBUG: ADDON: cpluff: 'Plug-in visualization.dxspectrum has been uninstalled.'
  586. 20:29:31 T:3288 M:1362083840   DEBUG: ADDON: cpluff: 'Plug-in xbmc.core has been uninstalled.'
  587. 20:29:31 T:3288 M:1362083840   DEBUG: ADDON: cpluff: 'Plug-in script.recentlyadded has been uninstalled.'
  588. 20:29:31 T:3288 M:1362083840   DEBUG: ADDON: cpluff: 'Plug-in screensaver.xbmc.builtin.slideshow has been uninstalled.'
  589. 20:29:31 T:3288 M:1362083840   DEBUG: ADDON: cpluff: 'Plug-in metadata.common.htbackdrops.com has been uninstalled.'
  590. 20:29:31 T:3288 M:1362083840   DEBUG: ADDON: cpluff: 'Plug-in metadata.common.allmusic.com has been uninstalled.'
  591. 20:29:31 T:3288 M:1362083840   DEBUG: ADDON: cpluff: 'Plug-in metadata.tvdb.com has been uninstalled.'
  592. 20:29:31 T:3288 M:1362083840   DEBUG: ADDON: cpluff: 'Plug-in weather.xbmc.builtin has been uninstalled.'
  593. 20:29:31 T:3288 M:1362083840   DEBUG: ADDON: cpluff: 'Plug-in metadata.common.last.fm has been uninstalled.'
  594. 20:29:31 T:3288 M:1362083840   DEBUG: ADDON: cpluff: 'Plug-in metadata.common.themoviedb.org has been uninstalled.'
  595. 20:29:31 T:3288 M:1362083840   DEBUG: ADDON: cpluff: 'Plug-in xbmc.python has been uninstalled.'
  596. 20:29:31 T:3288 M:1362083840   DEBUG: ADDON: cpluff: 'Plug-in screensaver.rsxs.plasma has been uninstalled.'
  597. 20:29:31 T:3288 M:1362083840   DEBUG: ADDON: cpluff: 'Plug-in visualization.waveform has been uninstalled.'
  598. 20:29:31 T:3288 M:1362083840   DEBUG: ADDON: cpluff: 'Plug-in xbmc.addon has been uninstalled.'
  599. 20:29:31 T:3288 M:1362083840   DEBUG: ADDON: cpluff: 'Plug-in metadata.mtv.com has been uninstalled.'
  600. 20:29:31 T:3288 M:1362083840   DEBUG: ADDON: cpluff: 'Plug-in script.module.pysqlite has been uninstalled.'
  601. 20:29:31 T:3288 M:1362079744   DEBUG: ADDON: cpluff: 'Plug-in metadata.common.hdtrailers.net has been uninstalled.'
  602. 20:29:31 T:3288 M:1362079744   DEBUG: ADDON: cpluff: 'Plug-in visualization.itunes has been uninstalled.'
  603. 20:29:31 T:3288 M:1362079744  NOTICE: unload sections
  604. 20:29:31 T:3288 M:1362079744   DEBUG: SECTION:UnloadAll(DLL: C:\Archivos de programa\Broadcom\Broadcom CrystalHD Decoder\bcmDIL.dll)
  605. 20:29:31 T:3288 M:1362079744   DEBUG: Win32DllLoader::Unload C:\Archivos de programa\Broadcom\Broadcom CrystalHD Decoder\bcmDIL.dll
  606. 20:29:31 T:3288 M:1362333696   DEBUG: SECTION:UnloadAll(DLL: special://xbmcbin/system/cpluff.dll)
  607. 20:29:31 T:3288 M:1362333696   DEBUG: Win32DllLoader::Unload cpluff.dll
  608. 20:29:31 T:3288 M:1362333696   DEBUG: FreeLibrary(libexpat.dll) -> 018C4FA0
  609. 20:29:31 T:3288 M:1362333696   DEBUG: Win32DllLoader::Unload libexpat.dll
  610. 20:29:31 T:3288 M:1362501632   DEBUG: SECTION:UnloadAll(DLL: special://xbmcbin/system/libcurl.dll)
  611. 20:29:31 T:3288 M:1362505728   DEBUG: Win32DllLoader::Unload libcurl.dll
  612. 20:29:31 T:3288 M:1362505728   DEBUG: FreeLibrary(libidn-11.dll) -> 03557A28
  613. 20:29:31 T:3288 M:1362505728   DEBUG: Win32DllLoader::Unload libidn-11.dll
  614. 20:29:31 T:3288 M:1362505728   DEBUG: FreeLibrary(libeay32.dll) -> 035FC650
  615. 20:29:31 T:3288 M:1362505728   DEBUG: FreeLibrary(libssl32.dll) -> 03601CF8
  616. 20:29:31 T:3288 M:1362505728   DEBUG: Win32DllLoader::Unload libssl32.dll
  617. 20:29:31 T:3288 M:1362505728   DEBUG: FreeLibrary(libeay32.dll) -> 035FC650
  618. 20:29:31 T:3288 M:1362505728   DEBUG: Win32DllLoader::Unload libeay32.dll
  619. 20:29:31 T:3288 M:1363394560   DEBUG: SECTION:UnloadAll(DLL: special://xbmcbin/system/players/dvdplayer/avutil-50.dll)
  620. 20:29:31 T:3288 M:1363398656   DEBUG: SECTION:UnloadAll(DLL: special://xbmcbin/system/players/dvdplayer/avcodec-52.dll)
  621. 20:29:31 T:3288 M:1363398656   DEBUG: SECTION:UnloadAll(DLL: special://xbmcbin/system/players/dvdplayer/avformat-52.dll)
  622. 20:29:31 T:3288 M:1363398656   DEBUG: Win32DllLoader::Unload avformat-52.dll
  623. 20:29:31 T:3288 M:1363398656   DEBUG: FreeLibrary(avcodec-52.dll) -> 040A2A58
  624. 20:29:31 T:3288 M:1363398656   DEBUG: Win32DllLoader::Unload avcodec-52.dll
  625. 20:29:31 T:3288 M:1363398656   DEBUG: FreeLibrary(libfaad.dll) -> 018A3558
  626. 20:29:31 T:3288 M:1363398656   DEBUG: Win32DllLoader::Unload libfaad.dll
  627. 20:29:31 T:3288 M:1363398656   DEBUG: FreeLibrary(avutil-50.dll) -> 035B6AE0
  628. 20:29:31 T:3288 M:1367666688   DEBUG: Previous line repeats 1 times.
  629. 20:29:31 T:3288 M:1367666688   DEBUG: SECTION:UnloadAll(DLL: special://xbmcbin/system/players/dvdplayer/swscale-0.6.1.dll)
  630. 20:29:31 T:3288 M:1367666688   DEBUG: Win32DllLoader::Unload swscale-0.6.1.dll
  631. 20:29:31 T:3288 M:1367666688   DEBUG: FreeLibrary(avutil-50.dll) -> 035B6AE0
  632. 20:29:31 T:3288 M:1367666688   DEBUG: Win32DllLoader::Unload avutil-50.dll
  633. 20:29:31 T:3288 M:1367801856   DEBUG: SECTION:UnloadAll(DLL: special://xbmcbin/system/players/dvdplayer/liba52.dll)
  634. 20:29:31 T:3288 M:1367801856   DEBUG: Win32DllLoader::Unload liba52.dll
  635. 20:29:31 T:3288 M:1367908352   DEBUG: SECTION:UnloadAll(DLL: special://xbmcbin/system/ImageLib.dll)
  636. 20:29:31 T:3288 M:1367908352   DEBUG: Win32DllLoader::Unload ImageLib.dll
  637. 20:29:31 T:3288 M:1370337280    INFO: lastfm destroyed